Bastille Street — A8YZ6 — position and weather

sailwx.info

Track history (hours):
 
Tides and Currents Weather Stations Pressure Air Temp Water Temp Dewpoint Dewpoint Depression Visibility Wind Speed Wind Dir Waves Ship Positions

Bastille Street

Last reported at 2017-Jul-16 14:28 UTC. Time now 2017-Sep-21 06:53 UTC.
Position N 29°58' W 093°51'.
Warning: this ship's position is months out of date.

Length 180 m; draft 7.8 m.

MMSI: 636015161.

Date/timePositionNaut miles runAvg speedWind from/ knotsBaromVisibWave heightAir tempDewpointWater temp
2017-Jul-16 14:28N 29°58' W 093°51'3 6.7
2017-Jul-16 14:00N 29°59' W 093°55'1 1.3
2017-Jul-16 13:25N 29°60' W 093°56'0 0.0
2017-Jul-16 12:58N 29°60' W 093°56'0 0.0
2017-Jul-16 12:25N 29°60' W 093°56'0 0.0
2017-Jul-16 11:58N 29°60' W 093°56'0 0.0
2017-Jul-16 11:01N 29°60' W 093°56'0 0.0
2017-Jul-16 10:58N 29°60' W 093°56'0 0.0
2017-Jul-16 10:25N 29°60' W 093°56'0 0.0
2017-Jul-16 09:58N 29°60' W 093°56'0 0.0
2017-Jul-16 09:22N 29°60' W 093°56'0 0.0
2017-Jul-16 08:55N 29°60' W 093°56'0 0.0
2017-Jul-16 08:22N 29°60' W 093°56'0 0.0
2017-Jul-16 07:40N 29°60' W 093°56'0 0.0
2017-Jul-16 07:04N 29°60' W 093°56'0 0.0
2017-Jul-16 06:58N 29°60' W 093°56'0 0.0
2017-Jul-16 06:28N 29°60' W 093°56'0 0.0
2017-Jul-16 05:55N 29°60' W 093°56'0 0.0
2017-Jul-16 05:28N 29°60' W 093°56'0 0.0
2017-Jul-16 03:55N 29°60' W 093°56'0 0.0
2017-Jul-16 03:28N 29°60' W 093°56'0 0.1
2017-Jul-16 02:58N 29°60' W 093°56'0 0.1
2017-Jul-16 02:25N 29°60' W 093°56'0 0.0
2017-Jul-16 02:01N 29°60' W 093°56'4 4.5
2017-Jul-16 01:08N 29°58' W 093°51'1 8.3
2017-Jul-16 01:01N 29°57' W 093°52'4 7.5
2017-Jul-16 00:30N 29°54' W 093°54'4 7.6
2017-Jul-16 00:00N 29°51' W 093°57'4 7.6
2017-Jul-15 23:30N 29°47' W 093°57'5 8.9
2017-Jul-15 23:00N 29°44' W 093°53'5 9.5
2017-Jul-15 22:30N 29°40' W 093°50'4 9.1
2017-Jul-15 22:00N 29°36' W 093°48'4 7.0
2017-Jul-15 21:23N 29°33' W 093°45'  
Track history (hours):
 
Tides and Currents Weather Stations Pressure Air Temp Water Temp Dewpoint Dewpoint Depression Visibility Wind Speed Wind Dir Waves Ship Positions

Bastille Street

Last reported at 2017-Jul-16 14:28 UTC. Time now 2017-Sep-21 06:53 UTC.
Position N 29°58' W 093°51'.
Warning: this ship's position is months out of date.

Length 180 m; draft 7.8 m.

MMSI: 636015161.

Date/timePositionNaut miles runAvg speedWind from/ knotsBaromVisibWave heightAir tempDewpointWater temp
2017-Jul-16 14:28N 29°58' W 093°51'3 6.7
2017-Jul-16 14:00N 29°59' W 093°55'1 1.3
2017-Jul-16 13:25N 29°60' W 093°56'0 0.0
2017-Jul-16 12:58N 29°60' W 093°56'0 0.0
2017-Jul-16 12:25N 29°60' W 093°56'0 0.0
2017-Jul-16 11:58N 29°60' W 093°56'0 0.0
2017-Jul-16 11:01N 29°60' W 093°56'0 0.0
2017-Jul-16 10:58N 29°60' W 093°56'0 0.0
2017-Jul-16 10:25N 29°60' W 093°56'0 0.0
2017-Jul-16 09:58N 29°60' W 093°56'0 0.0
2017-Jul-16 09:22N 29°60' W 093°56'0 0.0
2017-Jul-16 08:55N 29°60' W 093°56'0 0.0
2017-Jul-16 08:22N 29°60' W 093°56'0 0.0
2017-Jul-16 07:40N 29°60' W 093°56'0 0.0
2017-Jul-16 07:04N 29°60' W 093°56'0 0.0
2017-Jul-16 06:58N 29°60' W 093°56'0 0.0
2017-Jul-16 06:28N 29°60' W 093°56'0 0.0
2017-Jul-16 05:55N 29°60' W 093°56'0 0.0
2017-Jul-16 05:28N 29°60' W 093°56'0 0.0
2017-Jul-16 03:55N 29°60' W 093°56'0 0.0
2017-Jul-16 03:28N 29°60' W 093°56'0 0.1
2017-Jul-16 02:58N 29°60' W 093°56'0 0.1
2017-Jul-16 02:25N 29°60' W 093°56'0 0.0
2017-Jul-16 02:01N 29°60' W 093°56'4 4.5
2017-Jul-16 01:08N 29°58' W 093°51'1 8.3
2017-Jul-16 01:01N 29°57' W 093°52'4 7.5
2017-Jul-16 00:30N 29°54' W 093°54'4 7.6
2017-Jul-16 00:00N 29°51' W 093°57'4 7.6
2017-Jul-15 23:30N 29°47' W 093°57'5 8.9
2017-Jul-15 23:00N 29°44' W 093°53'5 9.5
2017-Jul-15 22:30N 29°40' W 093°50'4 9.1
2017-Jul-15 22:00N 29°36' W 093°48'4 7.0
2017-Jul-15 21:23N 29°33' W 093°45'  

Dump ship's entire track history